Time;durP1;ratioP1;P1;durP2;ratioP2;P2;SDS_P1;SDS_P2;PMS_P1;PMS_P2;Temp;Humidity;BMP_temperature;BMP_pressure;BME280_temperature;BME280_humidity;BME280_pressure;Samples;Min_cycle;Max_cycle;Signal;HPM_P1;HPM_P2
2022/10/15 00:00:07;;;;;;;1.03;0.60;;;;;;;;;;5032620;28;20423;-72
2022/10/15 00:02:33;;;;;;;0.63;0.63;;;;;;;;;;5033806;28;20423;-71
2022/10/15 00:04:59;;;;;;;0.60;0.60;;;;;;;;;;5033740;28;20561;-72
2022/10/15 00:07:25;;;;;;;0.50;0.50;;;;;;;;;;5033735;28;20416;-71
2022/10/15 00:09:51;;;;;;;1.33;0.60;;;;;;;;;;5033779;28;20459;-71
2022/10/15 00:12:17;;;;;;;0.50;0.50;;;;;;;;;;5033728;28;20909;-71
2022/10/15 00:14:43;;;;;;;0.40;0.40;;;;;;;;;;5033696;28;20510;-69
2022/10/15 00:17:09;;;;;;;1.60;0.60;;;;;;;;;;5032758;28;20449;-71
2022/10/15 00:19:35;;;;;;;3.70;0.60;;;;;;;;;;5033496;28;20412;-72
2022/10/15 00:22:01;;;;;;;0.50;0.43;;;;;;;;;;5033585;28;20416;-71
2022/10/15 00:24:27;;;;;;;0.60;0.60;;;;;;;;;;5033601;28;20495;-72
2022/10/15 00:26:53;;;;;;;6.10;0.60;;;;;;;;;;5033610;28;20854;-73
2022/10/15 00:29:19;;;;;;;1.33;0.50;;;;;;;;;;5032809;28;20763;-72
2022/10/15 00:31:45;;;;;;;1.37;0.50;;;;;;;;;;5033453;28;20407;-72
2022/10/15 00:34:11;;;;;;;5.13;0.63;;;;;;;;;;5033429;28;20415;-71
2022/10/15 00:36:37;;;;;;;0.57;0.57;;;;;;;;;;5033399;28;20416;-72
2022/10/15 00:39:04;;;;;;;0.47;0.47;;;;;;;;;;5033385;28;20428;-70
2022/10/15 00:41:32;;;;;;;0.70;0.60;;;;;;;;;;5033396;28;20395;-71
2022/10/15 00:43:59;;;;;;;2.83;0.60;;;;;;;;;;5033384;28;20424;-71
2022/10/15 00:46:25;;;;;;;1.53;0.60;;;;;;;;;;5033174;28;20875;-71
2022/10/15 00:48:54;;;;;;;0.90;0.53;;;;;;;;;;5033328;28;20536;-72
2022/10/15 00:51:20;;;;;;;3.60;0.50;;;;;;;;;;5033424;28;20411;-73
2022/10/15 00:53:47;;;;;;;2.40;0.70;;;;;;;;;;5033397;28;20408;-71
2022/10/15 00:56:15;;;;;;;0.50;0.50;;;;;;;;;;5033377;28;20412;-71
2022/10/15 00:58:41;;;;;;;1.17;0.80;;;;;;;;;;5031991;28;20551;-73
2022/10/15 01:01:07;;;;;;;2.20;0.50;;;;;;;;;;5033351;28;20415;-74
2022/10/15 01:03:34;;;;;;;0.93;0.93;;;;;;;;;;5031979;28;20431;-74
2022/10/15 01:06:01;;;;;;;0.70;0.70;;;;;;;;;;5033302;28;20409;-73
2022/10/15 01:08:26;;;;;;;2.40;0.63;;;;;;;;;;5033175;28;20419;-73
2022/10/15 01:10:52;;;;;;;0.67;0.67;;;;;;;;;;5033195;28;20762;-74
2022/10/15 01:13:18;;;;;;;2.30;0.53;;;;;;;;;;5033078;28;20422;-74
2022/10/15 01:15:56;;;;;;;4.33;0.70;;;;;;;;;;5033105;28;20942;-74
2022/10/15 01:18:43;;;;;;;0.73;0.70;;;;;;;;;;5032931;28;20583;-71
2022/10/15 01:21:09;;;;;;;4.03;0.70;;;;;;;;;;5032900;28;20442;-73
2022/10/15 01:23:44;;;;;;;1.90;0.63;;;;;;;;;;5032992;28;20919;-74
2022/10/15 01:26:23;;;;;;;1.13;0.70;;;;;;;;;;5033038;28;20418;-74
2022/10/15 01:28:53;;;;;;;3.60;0.90;;;;;;;;;;5031674;28;20857;-74
2022/10/15 01:31:25;;;;;;;2.10;1.00;;;;;;;;;;5033046;28;20853;-73
2022/10/15 01:34:03;;;;;;;15.07;1.20;;;;;;;;;;5032861;28;20506;-73
2022/10/15 01:36:33;;;;;;;0.60;0.60;;;;;;;;;;5032837;28;20422;-70
2022/10/15 01:39:11;;;;;;;4.83;0.87;;;;;;;;;;5032886;28;20431;-73
2022/10/15 01:41:43;;;;;;;1.40;1.00;;;;;;;;;;5036470;28;20500;-73
2022/10/15 01:44:11;;;;;;;4.00;1.00;;;;;;;;;;5036312;28;20455;-73
2022/10/15 01:46:53;;;;;;;1.33;0.70;;;;;;;;;;5036250;28;20413;-73
2022/10/15 01:49:21;;;;;;;1.07;1.07;;;;;;;;;;5036208;28;20437;-72
2022/10/15 01:51:48;;;;;;;0.70;0.70;;;;;;;;;;5036302;28;20499;-73
2022/10/15 01:54:16;;;;;;;0.97;0.97;;;;;;;;;;5036210;28;20499;-73
2022/10/15 01:56:48;;;;;;;0.87;0.87;;;;;;;;;;5036158;28;20767;-74
2022/10/15 01:59:14;;;;;;;5.50;0.90;;;;;;;;;;5036143;28;20520;-74
2022/10/15 02:01:43;;;;;;;2.57;0.80;;;;;;;;;;5036178;28;20414;-74
2022/10/15 02:04:20;;;;;;;1.93;0.90;;;;;;;;;;5036067;28;20473;-72
2022/10/15 02:06:48;;;;;;;0.70;0.70;;;;;;;;;;5036011;28;20407;-73
2022/10/15 02:09:18;;;;;;;0.60;0.60;;;;;;;;;;5036030;28;20404;-72
2022/10/15 02:11:58;;;;;;;0.80;0.80;;;;;;;;;;5035907;28;20408;-72
2022/10/15 02:14:28;;;;;;;1.73;1.03;;;;;;;;;;5034611;28;20459;-73
2022/10/15 02:17:15;;;;;;;0.90;0.80;;;;;;;;;;5035829;28;20826;-72
2022/10/15 02:19:59;;;;;;;4.07;0.80;;;;;;;;;;5035592;28;20433;-74
2022/10/15 02:22:48;;;;;;;1.67;0.67;;;;;;;;;;5035765;28;20864;-73
2022/10/15 02:25:16;;;;;;;0.70;0.70;;;;;;;;;;5035647;28;20767;-74
2022/10/15 02:27:44;;;;;;;0.70;0.70;;;;;;;;;;5034360;28;20424;-71
2022/10/15 02:30:10;;;;;;;3.03;0.90;;;;;;;;;;5035545;28;20403;-71
2022/10/15 02:32:40;;;;;;;1.73;0.60;;;;;;;;;;5035528;28;20943;-75
2022/10/15 02:35:08;;;;;;;0.53;0.53;;;;;;;;;;5035437;28;20502;-71
2022/10/15 02:37:34;;;;;;;4.73;0.80;;;;;;;;;;5035400;28;21051;-74
2022/10/15 02:40:00;;;;;;;0.70;0.70;;;;;;;;;;5035354;28;20415;-74
2022/10/15 02:42:26;;;;;;;1.47;0.83;;;;;;;;;;5035359;28;20510;-73
2022/10/15 02:44:52;;;;;;;1.90;0.97;;;;;;;;;;5034080;28;20493;-73
2022/10/15 02:47:19;;;;;;;0.90;0.90;;;;;;;;;;5033805;28;20613;-74
2022/10/15 02:49:45;;;;;;;5.00;0.90;;;;;;;;;;5035213;28;20423;-72
2022/10/15 02:52:11;;;;;;;0.90;0.90;;;;;;;;;;5034418;28;20432;-73
2022/10/15 02:54:37;;;;;;;1.13;1.03;;;;;;;;;;5034958;28;20455;-72
2022/10/15 02:57:03;;;;;;;1.00;0.80;;;;;;;;;;5033669;28;20468;-72
2022/10/15 02:59:29;;;;;;;1.13;1.00;;;;;;;;;;5035029;28;20412;-74
2022/10/15 03:01:55;;;;;;;5.23;1.13;;;;;;;;;;5035009;28;20910;-73
2022/10/15 03:04:21;;;;;;;2.30;0.70;;;;;;;;;;5033535;28;20453;-73
2022/10/15 03:06:47;;;;;;;3.60;1.03;;;;;;;;;;5034786;28;20916;-75
2022/10/15 03:09:13;;;;;;;2.00;1.10;;;;;;;;;;5034915;28;20420;-74
2022/10/15 03:11:39;;;;;;;1.80;1.30;;;;;;;;;;5034758;28;20412;-72
2022/10/15 03:14:05;;;;;;;1.10;1.10;;;;;;;;;;5034712;28;20415;-73
2022/10/15 03:16:31;;;;;;;2.63;1.03;;;;;;;;;;5034638;28;20426;-73
2022/10/15 03:18:57;;;;;;;0.90;0.90;;;;;;;;;;5034613;28;20466;-73
2022/10/15 03:21:23;;;;;;;1.00;1.00;;;;;;;;;;5033326;28;20462;-73
2022/10/15 03:23:49;;;;;;;1.30;1.20;;;;;;;;;;5033310;28;20428;-73
2022/10/15 03:26:15;;;;;;;1.60;1.50;;;;;;;;;;5033269;28;20419;-71
2022/10/15 03:28:40;;;;;;;1.73;1.07;;;;;;;;;;5034448;28;20410;-73
2022/10/15 03:31:06;;;;;;;1.47;1.33;;;;;;;;;;5033119;28;20513;-72
2022/10/15 03:33:33;;;;;;;1.20;1.00;;;;;;;;;;5034335;28;20862;-74
2022/10/15 03:35:59;;;;;;;4.43;1.20;;;;;;;;;;5034402;28;20403;-74
2022/10/15 03:38:24;;;;;;;1.43;1.33;;;;;;;;;;5034286;28;20478;-71
2022/10/15 03:40:50;;;;;;;2.87;1.23;;;;;;;;;;5034271;28;20403;-72
2022/10/15 03:43:16;;;;;;;1.73;1.00;;;;;;;;;;5034206;28;20430;-74
2022/10/15 03:45:42;;;;;;;0.80;0.70;;;;;;;;;;5034212;28;20905;-74
2022/10/15 03:48:08;;;;;;;0.70;0.70;;;;;;;;;;5033933;28;20993;-72
2022/10/15 03:50:34;;;;;;;1.30;1.20;;;;;;;;;;5032756;28;20588;-74
2022/10/15 03:53:02;;;;;;;1.57;0.90;;;;;;;;;;5034061;28;20415;-73
2022/10/15 03:55:28;;;;;;;1.63;1.00;;;;;;;;;;5034012;28;20489;-73
2022/10/15 03:57:54;;;;;;;1.63;1.10;;;;;;;;;;5033987;28;20927;-73
2022/10/15 04:00:20;;;;;;;1.50;0.90;;;;;;;;;;5033927;28;20428;-73
2022/10/15 04:02:46;;;;;;;2.77;1.00;;;;;;;;;;5033139;28;20779;-74
2022/10/15 04:05:12;;;;;;;0.90;0.90;;;;;;;;;;5033731;28;20436;-74
2022/10/15 04:07:38;;;;;;;3.67;1.10;;;;;;;;;;5033739;28;20407;-73
2022/10/15 04:10:04;;;;;;;1.20;1.10;;;;;;;;;;5033812;28;20407;-73
2022/10/15 04:12:30;;;;;;;3.83;1.10;;;;;;;;;;5033723;28;20418;-72
2022/10/15 04:14:56;;;;;;;1.00;0.90;;;;;;;;;;5033729;28;20396;-73
2022/10/15 04:17:22;;;;;;;1.20;1.10;;;;;;;;;;5032268;28;20462;-73
2022/10/15 04:19:48;;;;;;;1.13;0.60;;;;;;;;;;5033601;28;20427;-72
2022/10/15 04:22:14;;;;;;;3.73;1.20;;;;;;;;;;5033596;28;20963;-72
2022/10/15 04:24:40;;;;;;;0.80;0.80;;;;;;;;;;5033591;28;20922;-73
2022/10/15 04:27:06;;;;;;;1.17;0.83;;;;;;;;;;5033576;28;20767;-73
2022/10/15 04:29:32;;;;;;;0.70;0.70;;;;;;;;;;5033606;28;20454;-72
2022/10/15 04:31:58;;;;;;;1.40;1.00;;;;;;;;;;5033477;28;20954;-73
2022/10/15 04:34:24;;;;;;;2.30;0.73;;;;;;;;;;5033441;28;20423;-75
2022/10/15 04:36:50;;;;;;;0.60;0.60;;;;;;;;;;5033297;28;20458;-73
2022/10/15 04:39:16;;;;;;;0.80;0.70;;;;;;;;;;5032067;28;20945;-73
2022/10/15 04:41:42;;;;;;;1.30;0.53;;;;;;;;;;5033519;28;20404;-74
2022/10/15 04:44:08;;;;;;;1.83;0.80;;;;;;;;;;5033391;28;20416;-73
2022/10/15 04:46:34;;;;;;;1.20;1.20;;;;;;;;;;5033268;28;20408;-72
2022/10/15 04:49:00;;;;;;;0.83;0.83;;;;;;;;;;5033294;28;20485;-71
2022/10/15 04:51:26;;;;;;;0.80;0.80;;;;;;;;;;5032006;28;20416;-73
2022/10/15 04:53:52;;;;;;;1.47;0.97;;;;;;;;;;5033258;28;20455;-73
2022/10/15 04:56:19;;;;;;;1.43;0.80;;;;;;;;;;5033233;28;20964;-72
2022/10/15 04:58:46;;;;;;;2.53;2.43;;;;;;;;;;5033172;28;20479;-73
2022/10/15 05:01:14;;;;;;;3.60;0.80;;;;;;;;;;5033265;28;20414;-73
2022/10/15 05:03:41;;;;;;;0.73;0.60;;;;;;;;;;5033213;28;20436;-71
2022/10/15 05:06:08;;;;;;;0.70;0.70;;;;;;;;;;5033233;28;20408;-72
2022/10/15 05:08:35;;;;;;;2.30;0.70;;;;;;;;;;5033139;28;20416;-72
2022/10/15 05:11:01;;;;;;;2.73;0.70;;;;;;;;;;5033112;28;20407;-73
2022/10/15 05:13:28;;;;;;;0.70;0.70;;;;;;;;;;5033109;28;20495;-72
2022/10/15 05:15:54;;;;;;;1.00;0.90;;;;;;;;;;5036124;28;20898;-71
2022/10/15 05:18:20;;;;;;;1.13;1.10;;;;;;;;;;5036772;28;20482;-72
2022/10/15 05:20:45;;;;;;;0.50;0.50;;;;;;;;;;5036817;28;20743;-71
2022/10/15 05:23:12;;;;;;;4.83;1.17;;;;;;;;;;5035518;28;20480;-73
2022/10/15 05:25:38;;;;;;;1.00;0.67;;;;;;;;;;5036821;28;20912;-73
2022/10/15 05:28:04;;;;;;;1.10;1.00;;;;;;;;;;5036747;28;20622;-72
2022/10/15 05:30:30;;;;;;;3.03;0.70;;;;;;;;;;5036765;28;20407;-72
2022/10/15 05:32:56;;;;;;;7.37;0.70;;;;;;;;;;5036619;28;20916;-71
2022/10/15 05:35:22;;;;;;;2.70;1.07;;;;;;;;;;5036681;28;20828;-72
2022/10/15 05:37:48;;;;;;;1.53;0.80;;;;;;;;;;5035147;28;20479;-72
2022/10/15 05:40:14;;;;;;;2.00;0.60;;;;;;;;;;5035236;28;20505;-72
2022/10/15 05:42:40;;;;;;;4.20;1.00;;;;;;;;;;5036495;28;20415;-73
2022/10/15 05:45:07;;;;;;;3.20;1.00;;;;;;;;;;5035115;28;20431;-71
2022/10/15 05:47:33;;;;;;;3.73;0.70;;;;;;;;;;5036258;28;20497;-71
2022/10/15 05:49:59;;;;;;;0.80;0.80;;;;;;;;;;5036264;28;20412;-71
2022/10/15 05:52:25;;;;;;;1.50;1.00;;;;;;;;;;5036386;28;20762;-70
2022/10/15 05:54:51;;;;;;;4.00;0.70;;;;;;;;;;5034991;28;20432;-71
2022/10/15 05:57:17;;;;;;;2.23;1.23;;;;;;;;;;5036097;28;20821;-72
2022/10/15 05:59:43;;;;;;;1.90;1.17;;;;;;;;;;5036406;28;20420;-72
2022/10/15 06:02:14;;;;;;;1.17;0.70;;;;;;;;;;5036137;28;20457;-70
2022/10/15 06:04:40;;;;;;;1.73;0.80;;;;;;;;;;5034788;28;20419;-70
2022/10/15 06:07:06;;;;;;;4.67;1.00;;;;;;;;;;5034707;28;20552;-71
2022/10/15 06:09:32;;;;;;;3.20;0.80;;;;;;;;;;5035984;28;20808;-71
2022/10/15 06:11:58;;;;;;;9.80;1.27;;;;;;;;;;5035932;28;20766;-72
2022/10/15 06:14:24;;;;;;;4.00;1.30;;;;;;;;;;5036019;28;20766;-73
2022/10/15 06:16:53;;;;;;;1.90;0.80;;;;;;;;;;5036105;28;20439;-71
2022/10/15 06:19:19;;;;;;;0.70;0.70;;;;;;;;;;5035744;28;20448;-72
2022/10/15 06:21:45;;;;;;;0.80;0.80;;;;;;;;;;5035783;28;20498;-71
2022/10/15 06:24:11;;;;;;;1.00;1.00;;;;;;;;;;5035703;28;20418;-72
2022/10/15 06:26:37;;;;;;;3.70;0.80;;;;;;;;;;5034554;28;20407;-71
2022/10/15 06:29:03;;;;;;;2.90;0.90;;;;;;;;;;5035573;28;20455;-71
2022/10/15 06:31:29;;;;;;;1.73;1.03;;;;;;;;;;5034222;28;20507;-71
2022/10/15 06:33:54;;;;;;;0.97;0.70;;;;;;;;;;5035468;28;20435;-71
2022/10/15 06:36:23;;;;;;;1.17;0.90;;;;;;;;;;5034317;28;20412;-70
2022/10/15 06:38:49;;;;;;;3.07;0.83;;;;;;;;;;5035324;28;20467;-70
2022/10/15 06:41:15;;;;;;;1.53;0.70;;;;;;;;;;5035345;28;20478;-70
2022/10/15 06:43:42;;;;;;;4.40;0.80;;;;;;;;;;5035342;28;20409;-68
2022/10/15 06:46:07;;;;;;;2.57;0.83;;;;;;;;;;5033968;28;20958;-68
2022/10/15 06:48:34;;;;;;;1.40;0.80;;;;;;;;;;5035098;28;20566;-68
2022/10/15 06:51:00;;;;;;;1.70;0.80;;;;;;;;;;5033976;28;20427;-68
2022/10/15 06:53:27;;;;;;;3.40;0.90;;;;;;;;;;5033813;28;20443;-70
2022/10/15 06:56:00;;;;;;;1.10;1.00;;;;;;;;;;5035104;28;20408;-68
2022/10/15 06:58:26;;;;;;;2.60;0.60;;;;;;;;;;5034942;28;20558;-69
2022/10/15 07:00:52;;;;;;;1.13;0.70;;;;;;;;;;5033825;28;20508;-68
2022/10/15 07:03:17;;;;;;;1.80;1.70;;;;;;;;;;5035035;28;20510;-68
2022/10/15 07:05:43;;;;;;;1.40;0.97;;;;;;;;;;5034901;28;20929;-69
2022/10/15 07:08:09;;;;;;;2.47;1.00;;;;;;;;;;5034851;28;20926;-70
2022/10/15 07:10:35;;;;;;;0.80;0.80;;;;;;;;;;5034866;28;20462;-68
2022/10/15 07:13:02;;;;;;;2.13;0.90;;;;;;;;;;5034757;28;20416;-70
2022/10/15 07:15:28;;;;;;;1.30;1.30;;;;;;;;;;5034629;28;20411;-69
2022/10/15 07:18:00;;;;;;;1.90;0.70;;;;;;;;;;5034583;28;20479;-69
2022/10/15 07:20:27;;;;;;;1.40;0.70;;;;;;;;;;5034635;28;20401;-71
2022/10/15 07:23:00;;;;;;;2.13;0.60;;;;;;;;;;5034467;28;20416;-70
2022/10/15 07:25:26;;;;;;;1.10;0.80;;;;;;;;;;5034693;28;20465;-71
2022/10/15 07:27:54;;;;;;;2.00;1.10;;;;;;;;;;5034451;28;20418;-70
2022/10/15 07:30:20;;;;;;;2.40;0.83;;;;;;;;;;5034425;28;20491;-68
2022/10/15 07:32:46;;;;;;;5.20;0.80;;;;;;;;;;5034359;28;20879;-68
2022/10/15 07:35:12;;;;;;;0.97;0.97;;;;;;;;;;5034339;28;20429;-69
2022/10/15 07:37:38;;;;;;;3.10;0.90;;;;;;;;;;5033851;28;20463;-68
2022/10/15 07:40:04;;;;;;;5.03;0.77;;;;;;;;;;5034304;28;20426;-69
2022/10/15 07:42:30;;;;;;;2.47;0.90;;;;;;;;;;5034206;28;20415;-70
2022/10/15 07:44:56;;;;;;;0.97;0.70;;;;;;;;;;5034237;28;20492;-68
2022/10/15 07:47:22;;;;;;;2.20;0.80;;;;;;;;;;5034036;28;20846;-69
2022/10/15 07:49:48;;;;;;;5.90;0.70;;;;;;;;;;5034082;28;20412;-69
2022/10/15 07:52:14;;;;;;;0.83;0.60;;;;;;;;;;5034057;28;20754;-68
2022/10/15 07:54:40;;;;;;;2.93;1.10;;;;;;;;;;5033992;28;20491;-70
2022/10/15 07:57:06;;;;;;;0.80;0.80;;;;;;;;;;5032636;28;20827;-69
2022/10/15 07:59:32;;;;;;;0.93;0.60;;;;;;;;;;5033882;28;20400;-68
2022/10/15 08:01:58;;;;;;;1.60;0.60;;;;;;;;;;5033957;28;20460;-69
2022/10/15 08:04:24;;;;;;;1.47;0.80;;;;;;;;;;5032654;28;20435;-68
2022/10/15 08:06:50;;;;;;;0.80;0.70;;;;;;;;;;5033814;28;20413;-68
2022/10/15 08:09:16;;;;;;;1.63;0.80;;;;;;;;;;5033785;28;20495;-68
2022/10/15 08:11:42;;;;;;;4.63;3.77;;;;;;;;;;5033819;28;20416;-69
2022/10/15 08:14:08;;;;;;;2.67;0.93;;;;;;;;;;5032466;28;20422;-69
2022/10/15 08:16:34;;;;;;;0.90;0.70;;;;;;;;;;5032364;28;20436;-69
2022/10/15 08:19:00;;;;;;;1.27;0.80;;;;;;;;;;5033548;28;20471;-70
2022/10/15 08:21:26;;;;;;;2.00;0.83;;;;;;;;;;5033601;28;20819;-69
2022/10/15 08:23:52;;;;;;;2.33;1.63;;;;;;;;;;5032271;28;20436;-70
2022/10/15 08:26:18;;;;;;;4.43;0.97;;;;;;;;;;5031505;28;20425;-67
2022/10/15 08:28:44;;;;;;;0.90;0.90;;;;;;;;;;5030858;28;20416;-67
2022/10/15 08:31:10;;;;;;;0.90;0.90;;;;;;;;;;5030952;28;20424;-68
2022/10/15 08:33:37;;;;;;;11.67;0.90;;;;;;;;;;5030894;28;20979;-67
2022/10/15 08:36:07;;;;;;;2.43;0.77;;;;;;;;;;5030458;28;20501;-67
2022/10/15 08:38:33;;;;;;;2.07;0.90;;;;;;;;;;5029731;28;20849;-66
2022/10/15 08:41:00;;;;;;;2.77;0.70;;;;;;;;;;5029363;28;20437;-67
2022/10/15 08:43:31;;;;;;;3.20;0.90;;;;;;;;;;5030777;28;20440;-68
2022/10/15 08:45:59;;;;;;;5.80;1.10;;;;;;;;;;5030076;28;20452;-65
2022/10/15 08:48:33;;;;;;;5.27;1.10;;;;;;;;;;5030835;28;20465;-67
2022/10/15 08:51:08;;;;;;;0.80;0.80;;;;;;;;;;5034002;28;20772;-67
2022/10/15 08:53:39;;;;;;;1.90;1.07;;;;;;;;;;5036889;28;20515;-69
2022/10/15 08:56:11;;;;;;;0.83;0.67;;;;;;;;;;5034356;28;20541;-68
2022/10/15 08:58:45;;;;;;;4.77;0.80;;;;;;;;;;5034332;28;20611;-68
2022/10/15 09:01:21;;;;;;;1.17;0.70;;;;;;;;;;5034682;28;20426;-69
2022/10/15 09:04:01;;;;;;;1.13;0.80;;;;;;;;;;5036646;28;20503;-67
2022/10/15 09:06:35;;;;;;;1.37;0.93;;;;;;;;;;5034672;28;21167;-68
2022/10/15 09:09:19;;;;;;;0.83;0.83;;;;;;;;;;5034384;28;20412;-67
2022/10/15 09:12:14;;;;;;;2.40;0.70;;;;;;;;;;5034401;28;20420;-68
2022/10/15 09:14:43;;;;;;;0.70;0.70;;;;;;;;;;5034445;28;20443;-67
2022/10/15 09:17:20;;;;;;;1.90;0.73;;;;;;;;;;5033664;28;20471;-67
2022/10/15 09:19:49;;;;;;;1.57;0.70;;;;;;;;;;5032958;28;20578;-67
2022/10/15 09:22:17;;;;;;;1.47;0.70;;;;;;;;;;5034214;28;20428;-67
2022/10/15 09:24:43;;;;;;;1.67;0.77;;;;;;;;;;5034427;28;20838;-68
2022/10/15 09:27:14;;;;;;;8.43;0.97;;;;;;;;;;5034248;28;20469;-69
2022/10/15 09:29:48;;;;;;;0.70;0.70;;;;;;;;;;5033018;28;20491;-66
2022/10/15 09:32:20;;;;;;;1.63;0.70;;;;;;;;;;5038330;28;20548;-66
2022/10/15 09:34:59;;;;;;;2.70;1.20;;;;;;;;;;5033780;28;20785;-66
2022/10/15 09:37:27;;;;;;;2.50;0.70;;;;;;;;;;5033549;28;20478;-67
2022/10/15 09:40:23;;;;;;;2.63;0.90;;;;;;;;;;5033723;28;20422;-67
2022/10/15 09:42:50;;;;;;;1.03;1.00;;;;;;;;;;5033795;28;20444;-68
2022/10/15 09:45:16;;;;;;;1.53;1.03;;;;;;;;;;5035823;28;21030;-68
2022/10/15 09:47:43;;;;;;;2.07;0.80;;;;;;;;;;5033835;28;21000;-67
2022/10/15 09:50:11;;;;;;;3.03;1.07;;;;;;;;;;5035716;28;20426;-68
2022/10/15 09:52:36;;;;;;;0.87;0.87;;;;;;;;;;5033678;28;20429;-66
2022/10/15 09:55:12;;;;;;;7.93;1.33;;;;;;;;;;5033451;28;20424;-68
2022/10/15 09:57:39;;;;;;;0.70;0.70;;;;;;;;;;5033153;28;20483;-68
2022/10/15 10:00:07;;;;;;;7.13;1.00;;;;;;;;;;5033396;28;20426;-67
2022/10/15 10:02:33;;;;;;;3.27;0.87;;;;;;;;;;5033375;28;20417;-66
2022/10/15 10:05:17;;;;;;;3.37;0.97;;;;;;;;;;5033500;28;20422;-67
2022/10/15 10:07:43;;;;;;;1.10;0.90;;;;;;;;;;5032341;28;20439;-65
2022/10/15 10:10:25;;;;;;;2.93;0.97;;;;;;;;;;5033234;28;20434;-66
2022/10/15 10:12:52;;;;;;;4.20;0.90;;;;;;;;;;5031848;28;20940;-67
2022/10/15 10:15:21;;;;;;;1.47;0.80;;;;;;;;;;5033033;28;20490;-66
2022/10/15 10:17:54;;;;;;;2.87;0.70;;;;;;;;;;5031349;28;20874;-67
2022/10/15 10:20:22;;;;;;;1.00;0.90;;;;;;;;;;5031778;28;20436;-68
2022/10/15 10:22:52;;;;;;;1.73;0.80;;;;;;;;;;5033135;28;20419;-68
2022/10/15 10:25:38;;;;;;;4.40;1.00;;;;;;;;;;5032887;28;20425;-66
2022/10/15 10:28:13;;;;;;;2.30;1.00;;;;;;;;;;5032893;28;20954;-65
2022/10/15 10:30:44;;;;;;;1.43;0.97;;;;;;;;;;5032774;28;20427;-66
2022/10/15 10:33:12;;;;;;;0.97;0.80;;;;;;;;;;5032961;28;20772;-68
2022/10/15 10:35:46;;;;;;;1.20;1.10;;;;;;;;;;5034990;28;20416;-67
2022/10/15 10:38:39;;;;;;;0.77;0.77;;;;;;;;;;5032472;28;20577;-67
2022/10/15 10:41:08;;;;;;;1.87;0.80;;;;;;;;;;5031473;28;20524;-67
2022/10/15 10:43:35;;;;;;;0.80;0.80;;;;;;;;;;5032632;28;20965;-68
2022/10/15 10:46:06;;;;;;;1.23;0.97;;;;;;;;;;5034802;28;20417;-67
2022/10/15 10:48:42;;;;;;;1.97;0.87;;;;;;;;;;5034392;28;20518;-68
2022/10/15 10:51:12;;;;;;;1.53;0.77;;;;;;;;;;5032352;28;20962;-68
2022/10/15 10:53:44;;;;;;;0.90;0.90;;;;;;;;;;5031347;28;20534;-68
2022/10/15 10:56:12;;;;;;;5.00;0.80;;;;;;;;;;5032559;28;20513;-68
2022/10/15 10:58:38;;;;;;;6.03;1.13;;;;;;;;;;5031971;28;20810;-67
2022/10/15 11:01:04;;;;;;;0.83;0.83;;;;;;;;;;5032196;28;20910;-68
2022/10/15 11:03:38;;;;;;;1.30;1.00;;;;;;;;;;5034339;28;20440;-67
2022/10/15 11:06:22;;;;;;;0.80;0.80;;;;;;;;;;5032273;28;20405;-68
2022/10/15 11:09:07;;;;;;;0.93;0.93;;;;;;;;;;5034149;28;20464;-70
2022/10/15 11:11:33;;;;;;;0.60;0.60;;;;;;;;;;5031969;28;20502;-68
2022/10/15 11:13:59;;;;;;;3.23;1.40;;;;;;;;;;5031869;28;21000;-68
2022/10/15 11:16:35;;;;;;;2.70;1.10;;;;;;;;;;5031913;28;20449;-68
2022/10/15 11:19:10;;;;;;;3.63;0.83;;;;;;;;;;5033709;28;20516;-68
2022/10/15 11:22:01;;;;;;;1.83;0.90;;;;;;;;;;5031982;28;20444;-68
2022/10/15 11:24:36;;;;;;;3.03;1.00;;;;;;;;;;5032094;28;20461;-68
2022/10/15 11:27:11;;;;;;;1.03;0.93;;;;;;;;;;5031812;28;20499;-68
2022/10/15 11:29:56;;;;;;;8.13;1.00;;;;;;;;;;5033737;28;20508;-68
2022/10/15 11:32:22;;;;;;;1.93;0.80;;;;;;;;;;5031707;28;20508;-69
2022/10/15 11:35:03;;;;;;;11.03;1.00;;;;;;;;;;5030746;28;21061;-67
2022/10/15 11:37:34;;;;;;;4.00;0.80;;;;;;;;;;5031571;28;20461;-68
2022/10/15 11:40:18;;;;;;;6.10;0.83;;;;;;;;;;5031675;28;20426;-68
2022/10/15 11:42:53;;;;;;;2.53;1.00;;;;;;;;;;5031832;28;20411;-67
2022/10/15 11:45:34;;;;;;;1.27;1.00;;;;;;;;;;5031444;28;20457;-67
2022/10/15 11:48:10;;;;;;;6.83;0.70;;;;;;;;;;5031661;28;20470;-67
2022/10/15 11:50:39;;;;;;;11.80;1.37;;;;;;;;;;5031429;28;20429;-67
2022/10/15 11:53:24;;;;;;;0.80;0.80;;;;;;;;;;5033471;28;20414;-67
2022/10/15 11:56:04;;;;;;;2.97;0.70;;;;;;;;;;5031385;28;20845;-70
2022/10/15 11:58:33;;;;;;;2.50;0.80;;;;;;;;;;5031061;28;20579;-69
2022/10/15 12:01:07;;;;;;;0.93;0.63;;;;;;;;;;5033553;28;20473;-70
2022/10/15 12:03:37;;;;;;;0.83;0.83;;;;;;;;;;5031292;28;20422;-69
2022/10/15 12:06:15;;;;;;;1.00;0.80;;;;;;;;;;5030123;28;20466;-70
2022/10/15 12:08:42;;;;;;;1.00;0.67;;;;;;;;;;5029835;28;20415;-70
2022/10/15 12:11:15;;;;;;;7.70;1.10;;;;;;;;;;5029822;28;20415;-70
2022/10/15 12:13:55;;;;;;;1.33;0.90;;;;;;;;;;5034077;28;20435;-69
2022/10/15 12:16:24;;;;;;;1.37;1.10;;;;;;;;;;5030991;28;20481;-67
2022/10/15 12:19:04;;;;;;;1.80;1.00;;;;;;;;;;5030588;28;20480;-68
2022/10/15 12:21:33;;;;;;;0.80;0.80;;;;;;;;;;5031114;28;20444;-68
2022/10/15 12:23:59;;;;;;;0.90;0.90;;;;;;;;;;5030029;28;20748;-69
2022/10/15 12:26:24;;;;;;;0.93;0.93;;;;;;;;;;5030773;28;20814;-68
2022/10/15 12:28:52;;;;;;;1.23;0.73;;;;;;;;;;5030783;28;20426;-69
2022/10/15 12:31:22;;;;;;;1.20;1.20;;;;;;;;;;5030804;28;20415;-69
2022/10/15 12:33:48;;;;;;;3.60;1.40;;;;;;;;;;5030839;28;20434;-71
2022/10/15 12:36:26;;;;;;;1.30;1.20;;;;;;;;;;5031071;28;20414;-69
2022/10/15 12:39:01;;;;;;;2.17;1.23;;;;;;;;;;5027838;28;20471;-70
2022/10/15 12:41:40;;;;;;;1.30;1.30;;;;;;;;;;5030787;28;20409;-70
2022/10/15 12:44:08;;;;;;;3.80;1.60;;;;;;;;;;5032064;28;20416;-68
2022/10/15 12:46:37;;;;;;;3.00;2.80;;;;;;;;;;5033411;28;20755;-69
2022/10/15 12:49:23;;;;;;;2.30;0.87;;;;;;;;;;5033504;28;20424;-69
2022/10/15 12:51:49;;;;;;;6.83;0.80;;;;;;;;;;5033291;28;20466;-69
2022/10/15 12:54:34;;;;;;;2.30;0.90;;;;;;;;;;5053156;28;20887;-69
2022/10/15 12:57:00;;;;;;;1.37;0.70;;;;;;;;;;5051717;28;20419;-69
2022/10/15 12:59:44;;;;;;;12.80;1.00;;;;;;;;;;5053138;28;20490;-69
2022/10/15 13:02:29;;;;;;;1.10;1.00;;;;;;;;;;5053066;28;20403;-69
2022/10/15 13:04:55;;;;;;;5.20;1.60;;;;;;;;;;5053024;28;20950;-69
2022/10/15 13:07:21;;;;;;;4.93;0.90;;;;;;;;;;5053015;28;20462;-69
2022/10/15 13:09:47;;;;;;;4.17;1.03;;;;;;;;;;5053080;28;20415;-69
2022/10/15 13:12:24;;;;;;;2.60;1.00;;;;;;;;;;5051807;28;20437;-69
2022/10/15 13:15:06;;;;;;;0.90;0.90;;;;;;;;;;5053051;28;20411;-70
2022/10/15 13:17:31;;;;;;;2.27;1.47;;;;;;;;;;5052873;28;20459;-68
2022/10/15 13:19:59;;;;;;;1.80;0.97;;;;;;;;;;5052863;28;20444;-69
2022/10/15 13:22:27;;;;;;;1.30;1.20;;;;;;;;;;5051568;28;20808;-70
2022/10/15 13:24:54;;;;;;;4.37;1.27;;;;;;;;;;5052904;28;20398;-69
2022/10/15 13:27:20;;;;;;;1.27;0.90;;;;;;;;;;5053177;28;20395;-70
2022/10/15 13:30:03;;;;;;;0.80;0.80;;;;;;;;;;5052926;28;20426;-71
2022/10/15 13:32:31;;;;;;;5.53;0.97;;;;;;;;;;5052922;28;20417;-69
2022/10/15 13:34:58;;;;;;;0.90;0.90;;;;;;;;;;5052831;28;20405;-69
2022/10/15 13:37:29;;;;;;;0.80;0.80;;;;;;;;;;5055150;28;20850;-68
2022/10/15 13:39:55;;;;;;;1.33;0.97;;;;;;;;;;5056509;28;20632;-68
2022/10/15 13:42:22;;;;;;;2.20;1.70;;;;;;;;;;5056480;28;20426;-69
2022/10/15 13:45:14;;;;;;;1.07;0.70;;;;;;;;;;5056356;28;20463;-69
2022/10/15 13:47:41;;;;;;;1.23;0.60;;;;;;;;;;5054880;28;20469;-67
2022/10/15 13:50:17;;;;;;;1.90;0.90;;;;;;;;;;5056092;28;20411;-69
2022/10/15 13:52:45;;;;;;;0.60;0.60;;;;;;;;;;5056255;28;20923;-69
2022/10/15 13:55:22;;;;;;;1.00;1.00;;;;;;;;;;5056127;28;20889;-69
2022/10/15 13:57:49;;;;;;;3.60;0.80;;;;;;;;;;5056061;28;20520;-69
2022/10/15 14:00:20;;;;;;;2.90;0.70;;;;;;;;;;5056124;28;20407;-70
2022/10/15 14:02:46;;;;;;;2.00;0.70;;;;;;;;;;5056113;28;20434;-70
2022/10/15 14:05:15;;;;;;;1.53;0.80;;;;;;;;;;5055970;28;20423;-70
2022/10/15 14:07:41;;;;;;;0.97;0.97;;;;;;;;;;5055941;28;20503;-70
2022/10/15 14:10:08;;;;;;;2.93;0.90;;;;;;;;;;5055924;28;20851;-71
2022/10/15 14:12:34;;;;;;;1.57;1.57;;;;;;;;;;5055939;28;20482;-71
2022/10/15 14:15:19;;;;;;;3.73;1.40;;;;;;;;;;5055913;28;20870;-70
2022/10/15 14:17:49;;;;;;;17.73;1.20;;;;;;;;;;5054432;28;20510;-70
2022/10/15 14:20:19;;;;;;;1.10;1.10;;;;;;;;;;5055762;28;20423;-69
2022/10/15 14:22:48;;;;;;;1.57;1.20;;;;;;;;;;5054467;28;20421;-70
2022/10/15 14:25:15;;;;;;;6.63;1.13;;;;;;;;;;5055559;28;20882;-71
2022/10/15 14:27:44;;;;;;;1.90;0.90;;;;;;;;;;5054261;28;20419;-70
2022/10/15 14:30:19;;;;;;;0.70;0.70;;;;;;;;;;5055598;28;20435;-70
2022/10/15 14:32:47;;;;;;;1.30;1.30;;;;;;;;;;5055583;28;20779;-69
2022/10/15 14:35:30;;;;;;;0.70;0.70;;;;;;;;;;5055313;28;20426;-70
2022/10/15 14:38:00;;;;;;;3.90;1.00;;;;;;;;;;5055280;28;20465;-70
2022/10/15 14:40:26;;;;;;;5.03;1.37;;;;;;;;;;5055332;28;20407;-70
2022/10/15 14:42:55;;;;;;;5.53;1.57;;;;;;;;;;5055303;28;20398;-69
2022/10/15 14:45:24;;;;;;;4.10;0.80;;;;;;;;;;5054027;28;20420;-69
2022/10/15 14:47:55;;;;;;;3.00;0.80;;;;;;;;;;5052758;28;21039;-69
2022/10/15 14:50:24;;;;;;;1.20;1.07;;;;;;;;;;5055111;28;20415;-69
2022/10/15 14:52:51;;;;;;;3.57;1.17;;;;;;;;;;5055188;28;20408;-69
2022/10/15 14:55:23;;;;;;;1.13;0.70;;;;;;;;;;5055114;28;20838;-70